createdAt,value
2019-01-19T00:04:45.694Z,53.5
2019-01-19T00:09:51.226Z,53.5
2019-01-19T00:14:57.095Z,53.4
2019-01-19T00:20:02.252Z,53.6
2019-01-19T00:25:08.391Z,53.5
2019-01-19T00:30:14.363Z,53.6
2019-01-19T00:35:20.977Z,53.5
2019-01-19T00:40:26.499Z,53.5
2019-01-19T00:45:31.829Z,53.6
2019-01-19T00:55:41.502Z,53.7
2019-01-19T01:00:47.600Z,53.5
2019-01-19T01:05:52.808Z,53.4
2019-01-19T01:10:58.350Z,53.4
2019-01-19T01:16:03.478Z,53.5
2019-01-19T01:21:08.893Z,53.4
2019-01-19T01:26:14.885Z,53.4
2019-01-19T01:31:20.227Z,53.4
2019-01-19T01:36:25.748Z,53.5
2019-01-19T01:41:31.570Z,53.5
2019-01-19T01:46:37.192Z,53.4
2019-01-19T01:51:42.229Z,53.4
2019-01-19T02:01:52.371Z,53.4
2019-01-19T02:06:57.762Z,53.4
2019-01-19T02:12:03.427Z,53.3
2019-01-19T02:17:08.633Z,53.4
2019-01-19T02:22:14.123Z,53.2
2019-01-19T02:32:24.242Z,53.3
2019-01-19T02:37:29.511Z,53.2
2019-01-19T02:42:34.829Z,53.2
2019-01-19T02:47:40.372Z,53.2
2019-01-19T02:52:45.965Z,53.2
2019-01-19T02:57:51.541Z,53.2
2019-01-19T03:02:57.684Z,53.1
2019-01-19T03:08:02.965Z,53.2
2019-01-19T03:13:08.080Z,53
2019-01-19T03:18:15.253Z,53.1
2019-01-19T03:23:20.305Z,53.1
2019-01-19T03:28:25.482Z,53.1
2019-01-19T03:33:30.532Z,53.1
2019-01-19T03:38:35.812Z,53.1
2019-01-19T03:43:41.571Z,53.4
2019-01-19T03:53:51.606Z,53
2019-01-19T03:58:57.401Z,52.9
2019-01-19T04:04:02.562Z,52.9
2019-01-19T04:09:07.978Z,53
2019-01-19T04:14:13.795Z,53
2019-01-19T04:19:19.635Z,52.9
2019-01-19T04:24:24.925Z,52.9
2019-01-19T04:29:30.333Z,52.8
2019-01-19T04:34:36.027Z,52.9
2019-01-19T04:39:41.970Z,52.8
2019-01-19T04:44:47.060Z,52.8
2019-01-19T04:49:52.600Z,52.9
2019-01-19T04:54:57.601Z,52.9
2019-01-19T05:00:03.444Z,52.8
2019-01-19T05:05:09.035Z,52.8
2019-01-19T05:10:15.706Z,53.2
2019-01-19T05:15:21.264Z,52.7
2019-01-19T05:20:26.638Z,52.4
2019-01-19T05:25:32.412Z,52
2019-01-19T05:30:38.073Z,52
2019-01-19T05:35:43.893Z,51.8
2019-01-19T05:40:49.814Z,51.6
2019-01-19T05:50:59.900Z,51.3
2019-01-19T05:56:05.467Z,51.1
2019-01-19T06:01:10.682Z,51.1
2019-01-19T06:06:15.940Z,51
2019-01-19T06:11:21.422Z,50.8
2019-01-19T06:16:27.265Z,51.3
2019-01-19T06:21:32.927Z,50.8
2019-01-19T06:26:38.716Z,50.9
2019-01-19T06:31:44.444Z,50.8
2019-01-19T06:36:57.797Z,51
2019-01-19T06:41:53.770Z,51
2019-01-19T06:46:59.128Z,51
2019-01-19T06:52:05.100Z,50.9
2019-01-19T06:57:10.153Z,50.8
2019-01-19T07:02:15.769Z,50.8
2019-01-19T07:07:20.770Z,51
2019-01-19T07:12:25.956Z,51.1
2019-01-19T07:17:31.749Z,50.8
2019-01-19T07:22:37.661Z,50.9
2019-01-19T07:27:43.256Z,50.7
2019-01-19T07:32:48.685Z,50.6
2019-01-19T07:37:54.429Z,50.8
2019-01-19T07:43:00.402Z,50.9
2019-01-19T07:48:05.851Z,51.3
2019-01-19T07:53:10.972Z,51.2
2019-01-19T07:58:16.776Z,51.2
2019-01-19T08:03:20.851Z,51.2
2019-01-19T08:08:27.649Z,50.8
2019-01-19T08:13:33.353Z,51.5
2019-01-19T08:18:38.706Z,51
2019-01-19T08:23:44.578Z,51.2
2019-01-19T08:28:49.587Z,51.5
2019-01-19T08:38:59.102Z,51.4
2019-01-19T08:44:05.998Z,51.4
2019-01-19T08:49:11.787Z,51.4
2019-01-19T08:54:17.212Z,51.4
2019-01-19T08:59:23.035Z,51.6
2019-01-19T09:04:28.791Z,51.6
2019-01-19T09:09:34.701Z,51.5
2019-01-19T09:14:39.939Z,51.5
2019-01-19T09:19:44.944Z,51.5
2019-01-19T09:24:50.248Z,51.5
2019-01-19T09:29:55.756Z,51.5
2019-01-19T09:35:01.522Z,51.5
2019-01-19T09:40:09.264Z,51.5
2019-01-19T09:50:20.137Z,51.4
2019-01-19T09:55:25.741Z,51.3
2019-01-19T10:00:46.611Z,52
2019-01-19T10:05:31.959Z,51.3
2019-01-19T10:10:36.899Z,51.2
2019-01-19T10:15:42.012Z,51.2
2019-01-19T10:20:46.964Z,51.1
2019-01-19T10:25:53.348Z,50.9
2019-01-19T10:30:59.327Z,49.6
2019-01-19T10:36:05.085Z,50.2
2019-01-19T10:41:10.228Z,50.2
2019-01-19T10:46:16.947Z,50
2019-01-19T10:51:22.307Z,49.7
2019-01-19T10:56:27.560Z,50
2019-01-19T11:01:33.271Z,51.8
2019-01-19T11:06:39.175Z,51.5
2019-01-19T11:11:56.355Z,51.1
2019-01-19T11:17:02.354Z,52.7
2019-01-19T11:22:09.971Z,54.5
2019-01-19T11:27:15.838Z,55.5
2019-01-19T11:32:20.834Z,57.1
2019-01-19T11:37:25.897Z,57.1
2019-01-19T11:47:35.052Z,58.1
2019-01-19T11:52:40.184Z,57.5
2019-01-19T11:57:46.767Z,58.7
2019-01-19T12:07:56.242Z,59.1
2019-01-19T12:13:01.488Z,59.3
2019-01-19T12:18:07.195Z,39.1
2019-01-19T12:23:12.138Z,46.4
2019-01-19T12:28:17.532Z,47.6
2019-01-19T12:33:23.327Z,47.3
2019-01-19T12:38:29.603Z,48
2019-01-19T12:43:34.469Z,48
2019-01-19T12:48:39.554Z,48.6
2019-01-19T12:53:44.911Z,49
2019-01-19T12:58:50.199Z,49.6
2019-01-19T13:03:55.721Z,50
2019-01-19T13:09:00.864Z,50.5
2019-01-19T13:14:06.014Z,51.1
2019-01-19T13:19:11.328Z,51.7
2019-01-19T13:24:14.883Z,52
2019-01-19T13:29:20.151Z,52.8
2019-01-19T13:34:25.503Z,53.5
2019-01-19T13:39:30.657Z,54
2019-01-19T13:44:36.599Z,54.5
2019-01-19T13:49:40.533Z,55
2019-01-19T13:54:45.574Z,55
2019-01-19T13:59:51.010Z,55.1
2019-01-19T14:04:56.638Z,54.9
2019-01-19T14:10:01.807Z,54.9
2019-01-19T14:15:07.384Z,55.1
2019-01-19T14:20:13.419Z,55.6
2019-01-19T14:25:18.574Z,55.6
2019-01-19T14:30:25.184Z,56
2019-01-19T14:35:30.908Z,56.8
2019-01-19T14:40:36.648Z,57.1
2019-01-19T14:45:42.795Z,57.5
2019-01-19T14:50:48.478Z,57.3
2019-01-19T14:55:53.666Z,57.1
2019-01-19T15:00:59.468Z,57.4
2019-01-19T15:06:04.825Z,57.7
2019-01-19T15:11:10.964Z,57.7
2019-01-19T15:16:16.787Z,57.7
2019-01-19T15:21:22.494Z,56.6
2019-01-19T15:26:28.153Z,56.9
2019-01-19T15:31:33.941Z,53.4
2019-01-19T15:36:39.467Z,51.7
2019-01-19T15:54:21.391Z,45.6
2019-01-19T15:59:26.556Z,47.9
2019-01-19T16:04:32.270Z,51.6
2019-01-19T16:09:38.833Z,54
2019-01-19T16:14:44.323Z,54
2019-01-19T16:19:49.422Z,54.4
2019-01-19T16:24:54.378Z,54.4
2019-01-19T16:29:59.549Z,54.6
2019-01-19T16:35:05.299Z,54.6
2019-01-19T16:40:11.074Z,54.8
2019-01-19T16:45:16.126Z,54.9
2019-01-19T16:50:21.082Z,55
2019-01-19T16:55:26.208Z,55.2
2019-01-19T17:00:31.954Z,54.4
2019-01-19T17:05:38.832Z,54
2019-01-19T17:10:38.424Z,54
2019-01-19T17:15:43.434Z,54
2019-01-19T17:20:48.821Z,53.4
2019-01-19T17:25:53.836Z,54.1
2019-01-19T17:30:58.935Z,54.5
2019-01-19T17:36:03.915Z,54.7
2019-01-19T17:41:08.987Z,55
2019-01-19T17:46:14.614Z,54.9
2019-01-19T17:51:19.886Z,55.1
2019-01-19T17:56:25.038Z,55.2
2019-01-19T18:01:30.313Z,55.4
2019-01-19T18:06:35.936Z,55.5
2019-01-19T18:11:40.995Z,55.5
2019-01-19T18:16:46.406Z,55.3
2019-01-19T18:21:52.058Z,55.6
2019-01-19T18:26:57.422Z,56.1
2019-01-19T18:32:02.789Z,56.3
2019-01-19T18:37:08.902Z,55.4
2019-01-19T18:42:13.230Z,55.6
2019-01-19T18:47:22.920Z,56
2019-01-19T18:52:28.689Z,56.6
2019-01-19T18:57:33.584Z,57
2019-01-19T19:02:38.946Z,55.8
2019-01-19T19:07:44.392Z,55.2
2019-01-19T19:12:49.521Z,55.3
2019-01-19T19:17:55.034Z,55
2019-01-19T19:23:00.387Z,42.5
2019-01-19T19:28:05.402Z,38.4
2019-01-19T19:33:10.755Z,39.7
2019-01-19T19:38:15.847Z,39.7
2019-01-19T19:43:21.680Z,40.3
2019-01-19T19:48:22.512Z,41.1
2019-01-19T19:53:27.751Z,41.7
2019-01-19T19:58:33.300Z,44.9
2019-01-19T20:03:39.603Z,44.9
2019-01-19T20:08:45.135Z,46.1
2019-01-19T20:13:50.458Z,47.8
2019-01-19T20:18:56.286Z,48
2019-01-19T20:24:01.960Z,48.1
2019-01-19T20:29:07.693Z,48.2
2019-01-19T20:34:13.001Z,48.5
2019-01-19T20:39:18.409Z,49.8
2019-01-19T20:44:21.976Z,49.4
2019-01-19T20:49:27.188Z,49.7
2019-01-19T20:54:32.821Z,50.7
2019-01-19T20:59:37.847Z,51.4
2019-01-19T21:04:43.326Z,51.3
2019-01-19T21:09:48.956Z,51.6
2019-01-19T21:14:54.807Z,51.9
2019-01-19T21:20:01.562Z,52.2
2019-01-19T21:25:07.193Z,52.3
2019-01-19T21:30:12.886Z,52.8
2019-01-19T21:35:18.532Z,52.6
2019-01-19T21:45:28.389Z,55.1
2019-01-19T21:50:33.738Z,55.1
2019-01-19T22:00:43.144Z,54.5
2019-01-19T22:05:52.419Z,54.6
2019-01-19T22:10:57.400Z,54.8
2019-01-19T22:16:02.691Z,54.3
2019-01-19T22:21:08.379Z,54.2
2019-01-19T22:31:16.704Z,54.4
2019-01-19T22:36:21.968Z,54.4
2019-01-19T22:41:27.973Z,54
2019-01-19T22:46:15.842Z,53.3
2019-01-19T22:47:41.685Z,53.2
2019-01-19T22:50:34.474Z,51.8
2019-01-19T22:51:54.955Z,52.4
2019-01-19T22:57:00.337Z,52
2019-01-19T23:02:05.371Z,54
2019-01-19T23:07:11.278Z,55.3
2019-01-19T23:12:24.999Z,55.4
2019-01-19T23:17:26.500Z,55.4
2019-01-19T23:22:31.341Z,56.1
2019-01-19T23:27:36.629Z,55.8
2019-01-19T23:32:43.086Z,56
2019-01-19T23:37:48.447Z,56
2019-01-19T23:42:54.046Z,56
2019-01-19T23:47:59.931Z,56
2019-01-19T23:53:05.561Z,56
2019-01-19T23:58:10.516Z,56
